Terminal Aerodrome Forecast
Issued by NWS Glasgow, MT

Home | Current Version | Previous Version | Text Only | Print | Product List | Glossary On
Versions: 1 2 3 4 5 6 7 8 9 10 11 12 13 14
000
FTUS45 KGGW 281100 RRA
TAFGGW
TAF
KGGW 281142Z 2812/2912 11010KT P6SM SCT210
     FM281800 28017KT P6SM VCTS BKN060CB
     FM282100 28024G35KT P6SM VCTS BKN060CB
     FM290000 28027G38KT P6SM VCSH BKN080
     FM290600 31016KT P6SM SCT040=

USA.gov is the U.S. government's official web portal to all federal, state and local government web resources and services.